createdAt,value
2018-03-14T00:00:46.100Z,8.82
2018-03-14T00:01:50.740Z,8.07
2018-03-14T00:02:55.381Z,7.70
2018-03-14T00:04:00.800Z,8.02
2018-03-14T00:05:06.038Z,8.18
2018-03-14T00:06:11.240Z,7.40
2018-03-14T00:07:17.398Z,7.22
2018-03-14T00:08:22.044Z,7.47
2018-03-14T00:09:27.443Z,8.07
2018-03-14T00:10:32.102Z,7.03
2018-03-14T00:11:36.729Z,7.75
2018-03-14T00:12:41.174Z,8.13
2018-03-14T00:13:45.617Z,7.30
2018-03-14T00:14:50.821Z,6.97
2018-03-14T00:15:56.054Z,7.90
2018-03-14T00:17:00.496Z,6.90
2018-03-14T00:18:05.902Z,8.10
2018-03-14T00:19:10.358Z,8.00
2018-03-14T00:20:14.995Z,8.13
2018-03-14T00:21:19.468Z,7.22
2018-03-14T00:22:32.865Z,7.40
2018-03-14T00:23:38.085Z,8.15
2018-03-14T00:24:42.729Z,7.68
2018-03-14T00:25:47.934Z,7.60
2018-03-14T00:26:52.390Z,8.00
2018-03-14T00:27:57.037Z,7.35
2018-03-14T00:29:01.686Z,7.65
2018-03-14T00:30:07.105Z,8.00
2018-03-14T00:31:11.752Z,7.45
2018-03-14T00:32:16.422Z,7.20
2018-03-14T00:33:21.073Z,7.97
2018-03-14T00:34:26.501Z,8.30
2018-03-14T00:35:31.999Z,7.90
2018-03-14T00:36:36.653Z,6.90
2018-03-14T00:37:42.292Z,6.82
2018-03-14T00:38:46.934Z,7.93
2018-03-14T00:39:51.366Z,7.12
2018-03-14T00:40:56.098Z,8.48
2018-03-14T00:42:00.753Z,8.38
2018-03-14T00:43:06.181Z,7.68
2018-03-14T00:44:11.681Z,7.97
2018-03-14T00:45:16.152Z,8.10
2018-03-14T00:46:20.813Z,7.10
2018-03-14T00:47:25.465Z,8.32
2018-03-14T00:48:30.698Z,8.27
2018-03-14T00:49:36.160Z,7.82
2018-03-14T00:50:40.818Z,8.48
2018-03-14T00:51:45.544Z,7.25
2018-03-14T00:52:49.974Z,8.15
2018-03-14T00:53:55.406Z,7.97
2018-03-14T00:55:00.901Z,7.90
2018-03-14T00:56:05.000Z,8.30
2018-03-14T00:57:09.630Z,6.85
2018-03-14T00:58:14.277Z,7.50
2018-03-14T00:59:19.706Z,6.85
2018-03-14T01:00:24.918Z,7.43
2018-03-14T01:01:30.142Z,7.10
2018-03-14T01:02:34.578Z,7.53
2018-03-14T01:03:39.980Z,7.10
2018-03-14T01:04:44.650Z,6.30
2018-03-14T01:05:49.081Z,7.62
2018-03-14T01:06:53.518Z,7.82
2018-03-14T01:07:58.149Z,6.75
2018-03-14T01:09:02.630Z,5.50
2018-03-14T01:10:07.095Z,7.07
2018-03-14T01:11:12.494Z,6.10
2018-03-14T01:12:17.129Z,6.68
2018-03-14T01:13:21.573Z,6.45
2018-03-14T01:14:25.997Z,6.97
2018-03-14T01:15:30.649Z,6.78
2018-03-14T01:16:35.081Z,7.40
2018-03-14T01:17:39.961Z,5.68
2018-03-14T01:18:44.588Z,6.57
2018-03-14T01:19:49.218Z,7.70
2018-03-14T01:20:53.875Z,6.87
2018-03-14T01:21:58.314Z,6.45
2018-03-14T01:23:02.946Z,7.25
2018-03-14T01:24:07.570Z,6.25
2018-03-14T01:25:12.977Z,7.20
2018-03-14T01:26:17.659Z,7.90
2018-03-14T01:27:22.101Z,7.28
2018-03-14T01:28:26.529Z,6.50
2018-03-14T01:29:30.959Z,6.85
2018-03-14T01:30:35.641Z,6.55
2018-03-14T01:31:40.294Z,6.68
2018-03-14T01:32:45.703Z,7.40
2018-03-14T01:33:50.337Z,6.97
2018-03-14T01:34:55.547Z,7.45
2018-03-14T01:36:00.012Z,6.68
2018-03-14T01:37:04.358Z,8.35
2018-03-14T01:38:09.014Z,8.05
2018-03-14T01:39:14.707Z,8.25
2018-03-14T01:40:19.151Z,8.10
2018-03-14T01:41:23.799Z,8.07
2018-03-14T01:42:28.254Z,7.82
2018-03-14T01:43:32.901Z,7.82
2018-03-14T01:44:38.318Z,7.47
2018-03-14T01:45:42.777Z,7.75
2018-03-14T01:46:47.438Z,9.65
2018-03-14T01:47:51.898Z,8.15
2018-03-14T01:48:56.600Z,7.93
2018-03-14T01:50:01.039Z,7.10
2018-03-14T01:51:05.687Z,7.75
2018-03-14T01:52:10.125Z,7.95
2018-03-14T01:53:26.645Z,8.18
2018-03-14T01:54:31.078Z,8.52
2018-03-14T01:55:35.514Z,8.48
2018-03-14T01:56:40.174Z,9.73
2018-03-14T01:57:44.818Z,8.23
2018-03-14T01:58:49.309Z,8.75
2018-03-14T01:59:53.639Z,8.02
2018-03-14T02:00:58.278Z,7.45
2018-03-14T02:02:02.730Z,9.20
2018-03-14T02:03:07.417Z,8.77
2018-03-14T02:04:12.068Z,9.43
2018-03-14T02:05:16.713Z,8.80
2018-03-14T02:06:21.353Z,7.75
2018-03-14T02:07:26.572Z,8.55
2018-03-14T02:08:31.209Z,7.80
2018-03-14T02:09:35.885Z,8.27
2018-03-14T02:10:40.550Z,8.90
2018-03-14T02:11:45.966Z,8.68
2018-03-14T02:12:50.616Z,8.73
2018-03-14T02:13:56.025Z,8.30
2018-03-14T02:15:01.460Z,9.27
2018-03-14T02:16:06.677Z,10.15
2018-03-14T02:17:12.107Z,9.70
2018-03-14T02:18:16.750Z,8.98
2018-03-14T02:19:22.173Z,7.97
2018-03-14T02:20:26.300Z,8.23
2018-03-14T02:21:30.941Z,8.60
2018-03-14T02:22:35.586Z,8.75
2018-03-14T02:23:41.767Z,8.75
2018-03-14T02:24:47.177Z,8.43
2018-03-14T02:25:51.656Z,8.15
2018-03-14T02:26:56.294Z,8.63
2018-03-14T02:28:00.748Z,9.38
2018-03-14T02:29:05.972Z,8.52
2018-03-14T02:30:11.462Z,8.52
2018-03-14T02:31:16.076Z,8.45
2018-03-14T02:32:20.725Z,8.10
2018-03-14T02:33:26.026Z,8.70
2018-03-14T02:34:30.678Z,9.40
2018-03-14T02:35:36.105Z,8.07
2018-03-14T02:36:52.762Z,9.18
2018-03-14T02:37:57.406Z,9.40
2018-03-14T02:39:02.632Z,8.02
2018-03-14T02:40:07.277Z,8.93
2018-03-14T02:41:12.488Z,8.88
2018-03-14T02:42:17.166Z,8.10
2018-03-14T02:43:21.602Z,8.45
2018-03-14T02:44:27.762Z,8.25
2018-03-14T02:45:32.410Z,8.93
2018-03-14T02:46:36.860Z,9.75
2018-03-14T02:47:41.318Z,9.80
2018-03-14T02:48:46.526Z,8.50
2018-03-14T02:49:51.015Z,8.13
2018-03-14T02:50:55.442Z,8.45
2018-03-14T02:51:59.889Z,9.48
2018-03-14T02:53:04.346Z,8.73
2018-03-14T02:54:08.822Z,10.02
2018-03-14T02:55:13.252Z,9.52
2018-03-14T02:56:17.698Z,9.23
2018-03-14T02:57:22.136Z,8.02
2018-03-14T02:58:27.354Z,8.57
2018-03-14T02:59:32.558Z,8.85
2018-03-14T03:00:36.990Z,8.07
2018-03-14T03:01:42.210Z,8.40
2018-03-14T03:02:46.638Z,8.10
2018-03-14T03:03:51.877Z,8.48
2018-03-14T03:04:56.314Z,9.18
2018-03-14T03:06:00.848Z,8.88
2018-03-14T03:07:05.353Z,8.85
2018-03-14T03:08:10.466Z,8.32
2018-03-14T03:09:14.926Z,8.25
2018-03-14T03:10:19.357Z,8.13
2018-03-14T03:11:24.556Z,7.70
2018-03-14T03:12:28.993Z,8.57
2018-03-14T03:13:34.198Z,8.43
2018-03-14T03:14:38.658Z,7.80
2018-03-14T03:15:43.115Z,8.57
2018-03-14T03:16:47.552Z,7.53
2018-03-14T03:17:52.414Z,8.40
2018-03-14T03:18:56.853Z,8.70
2018-03-14T03:20:01.320Z,8.40
2018-03-14T03:21:05.762Z,8.80
2018-03-14T03:22:10.202Z,9.02
2018-03-14T03:23:15.405Z,8.73
2018-03-14T03:24:19.921Z,7.62
2018-03-14T03:25:24.377Z,8.10
2018-03-14T03:26:28.818Z,9.00
2018-03-14T03:27:33.253Z,8.43
2018-03-14T03:28:37.698Z,9.20
2018-03-14T03:29:42.901Z,7.97
2018-03-14T03:30:47.370Z,8.10
2018-03-14T03:31:51.609Z,8.57
2018-03-14T03:32:56.057Z,9.05
2018-03-14T03:34:00.498Z,9.23
2018-03-14T03:35:05.036Z,8.38
2018-03-14T03:36:09.518Z,8.10
2018-03-14T03:37:13.953Z,8.55
2018-03-14T03:38:18.385Z,8.13
2018-03-14T03:39:22.822Z,9.80
2018-03-14T03:40:28.026Z,9.20
2018-03-14T03:41:32.492Z,8.88
2018-03-14T03:42:36.938Z,9.52
2018-03-14T03:43:41.380Z,8.43
2018-03-14T03:44:46.586Z,9.57
2018-03-14T03:45:51.795Z,9.10
2018-03-14T03:46:56.261Z,7.97
2018-03-14T03:48:00.702Z,9.07
2018-03-14T03:49:04.945Z,9.60
2018-03-14T03:50:09.388Z,8.38
2018-03-14T03:51:13.830Z,8.57
2018-03-14T03:52:18.291Z,8.43
2018-03-14T03:53:23.498Z,8.57
2018-03-14T03:54:27.949Z,8.30
2018-03-14T03:55:32.394Z,8.15
2018-03-14T03:56:36.628Z,8.68
2018-03-14T03:57:41.854Z,8.70
2018-03-14T03:58:46.292Z,6.50
2018-03-14T03:59:50.718Z,6.97
2018-03-14T04:00:55.915Z,6.68
2018-03-14T04:02:00.347Z,6.20
2018-03-14T04:03:05.558Z,5.87
2018-03-14T04:04:09.983Z,6.53
2018-03-14T04:05:14.419Z,5.75
2018-03-14T04:06:18.852Z,5.22
2018-03-14T04:07:23.282Z,5.50
2018-03-14T04:08:27.757Z,5.50
2018-03-14T04:09:32.205Z,5.93
2018-03-14T04:10:37.415Z,5.50
2018-03-14T04:11:41.842Z,4.95
2018-03-14T04:12:46.281Z,5.18
2018-03-14T04:13:51.524Z,4.43
2018-03-14T04:14:55.754Z,5.10
2018-03-14T04:16:00.276Z,5.30
2018-03-14T04:17:04.721Z,4.85
2018-03-14T04:18:09.160Z,5.07
2018-03-14T04:19:14.070Z,4.82
2018-03-14T04:20:19.298Z,5.32
2018-03-14T04:21:24.592Z,5.50
2018-03-14T04:22:29.014Z,4.72
2018-03-14T04:23:33.454Z,4.85
2018-03-14T04:24:37.925Z,6.50
2018-03-14T04:25:42.353Z,5.82
2018-03-14T04:26:46.802Z,5.40
2018-03-14T04:27:51.234Z,4.65
2018-03-14T04:28:55.671Z,5.40
2018-03-14T04:30:00.135Z,5.43
2018-03-14T04:31:04.565Z,4.68
2018-03-14T04:32:09.005Z,4.68
2018-03-14T04:33:13.452Z,5.28
2018-03-14T04:34:18.655Z,5.10
2018-03-14T04:35:23.123Z,4.85
2018-03-14T04:36:27.578Z,5.15
2018-03-14T04:37:32.005Z,5.10
2018-03-14T04:38:36.433Z,5.57
2018-03-14T04:39:40.874Z,5.97
2018-03-14T04:40:45.338Z,4.65
2018-03-14T04:41:50.348Z,4.62
2018-03-14T04:42:54.807Z,6.07
2018-03-14T04:43:59.229Z,4.30
2018-03-14T04:45:03.330Z,5.10
2018-03-14T04:46:07.799Z,5.22
2018-03-14T04:47:13.016Z,4.95
2018-03-14T04:48:17.441Z,4.10
2018-03-14T04:49:22.643Z,4.70
2018-03-14T04:50:27.074Z,4.80
2018-03-14T04:51:32.286Z,5.80
2018-03-14T04:52:38.246Z,3.83
2018-03-14T04:53:42.681Z,4.35
2018-03-14T04:54:47.133Z,4.10
2018-03-14T04:55:51.571Z,4.03
2018-03-14T04:56:56.810Z,4.00
2018-03-14T04:58:02.230Z,4.57
2018-03-14T04:59:06.668Z,4.30
2018-03-14T05:00:11.879Z,4.07
2018-03-14T05:01:17.086Z,4.95
2018-03-14T05:02:21.577Z,4.28
2018-03-14T05:03:26.200Z,3.60
2018-03-14T05:04:30.713Z,3.30
2018-03-14T05:05:35.137Z,3.33
2018-03-14T05:06:40.347Z,3.20
2018-03-14T05:07:44.797Z,3.22
2018-03-14T05:08:50.322Z,3.22
2018-03-14T05:09:54.754Z,3.65
2018-03-14T05:10:59.976Z,4.05
2018-03-14T05:12:04.408Z,3.00
2018-03-14T05:13:08.903Z,3.08
2018-03-14T05:14:13.339Z,3.97
2018-03-14T05:15:17.770Z,3.20
2018-03-14T05:16:22.209Z,3.30
2018-03-14T05:17:26.646Z,3.30
2018-03-14T05:18:31.871Z,3.33
2018-03-14T05:19:37.062Z,3.35
2018-03-14T05:20:41.495Z,2.80
2018-03-14T05:21:45.925Z,3.30
2018-03-14T05:22:51.130Z,3.42
2018-03-14T05:23:55.590Z,4.15
2018-03-14T05:25:00.021Z,3.17
2018-03-14T05:26:04.458Z,3.20
2018-03-14T05:27:08.895Z,3.78
2018-03-14T05:28:14.100Z,3.53
2018-03-14T05:29:18.555Z,4.68
2018-03-14T05:30:23.008Z,4.15
2018-03-14T05:31:27.439Z,4.07
2018-03-14T05:32:31.869Z,4.20
2018-03-14T05:33:37.122Z,3.70
2018-03-14T05:34:41.645Z,3.72
2018-03-14T05:35:46.134Z,3.30
2018-03-14T05:36:51.411Z,3.70
2018-03-14T05:37:55.915Z,4.80
2018-03-14T05:39:00.433Z,3.30
2018-03-14T05:40:04.883Z,3.20
2018-03-14T05:41:10.110Z,4.10
2018-03-14T05:42:14.542Z,3.92
2018-03-14T05:43:18.993Z,3.67
2018-03-14T05:44:23.430Z,3.75
2018-03-14T05:45:27.882Z,3.50
2018-03-14T05:46:32.342Z,3.50
2018-03-14T05:47:38.353Z,3.75
2018-03-14T05:48:42.826Z,4.50
2018-03-14T05:49:48.034Z,3.50
2018-03-14T05:50:52.492Z,3.85
2018-03-14T05:51:56.922Z,3.90
2018-03-14T05:53:01.368Z,5.57
2018-03-14T05:54:05.798Z,3.92
2018-03-14T05:55:11.063Z,3.70
2018-03-14T05:56:15.570Z,3.20
2018-03-14T05:57:20.015Z,3.47
2018-03-14T05:58:24.437Z,4.40
2018-03-14T05:59:28.874Z,3.92
2018-03-14T06:00:34.091Z,3.40
2018-03-14T06:01:38.378Z,3.35
2018-03-14T06:02:45.475Z,3.10
2018-03-14T06:03:50.767Z,4.30
2018-03-14T06:04:55.190Z,4.10
2018-03-14T06:05:59.630Z,3.85
2018-03-14T06:07:04.851Z,3.28
2018-03-14T06:08:09.278Z,3.03
2018-03-14T06:09:14.878Z,2.35
2018-03-14T06:10:19.331Z,3.40
2018-03-14T06:11:24.544Z,3.30
2018-03-14T06:12:29.757Z,2.78
2018-03-14T06:13:34.193Z,3.53
2018-03-14T06:14:39.396Z,3.10
2018-03-14T06:15:43.833Z,2.95
2018-03-14T06:16:49.045Z,3.22
2018-03-14T06:17:54.272Z,2.75
2018-03-14T06:18:58.705Z,2.95
2018-03-14T06:20:03.147Z,2.85
2018-03-14T06:21:07.588Z,2.75
2018-03-14T06:22:12.391Z,1.95
2018-03-14T06:23:17.161Z,2.60
2018-03-14T06:24:22.083Z,2.65
2018-03-14T06:25:26.656Z,2.53
2018-03-14T06:26:31.680Z,3.10
2018-03-14T06:27:36.137Z,2.85
2018-03-14T06:28:41.352Z,2.30
2018-03-14T06:29:46.592Z,4.90
2018-03-14T06:30:51.592Z,3.72
2018-03-14T06:31:56.036Z,3.20
2018-03-14T06:33:00.505Z,2.85
2018-03-14T06:34:04.962Z,2.45
2018-03-14T06:35:09.384Z,2.80
2018-03-14T06:36:13.826Z,2.80
2018-03-14T06:37:18.257Z,2.60
2018-03-14T06:38:23.454Z,2.58
2018-03-14T06:39:27.909Z,3.15
2018-03-14T06:40:33.107Z,2.40
2018-03-14T06:41:37.367Z,2.40
2018-03-14T06:42:41.803Z,2.58
2018-03-14T06:43:46.249Z,2.60
2018-03-14T06:44:51.050Z,3.15
2018-03-14T06:45:56.104Z,3.28
2018-03-14T06:47:00.768Z,3.90
2018-03-14T06:48:05.603Z,2.83
2018-03-14T06:49:10.523Z,2.83
2018-03-14T06:50:14.979Z,2.60
2018-03-14T06:51:19.992Z,1.80
2018-03-14T06:52:24.420Z,2.50
2018-03-14T06:53:28.871Z,2.20
2018-03-14T06:54:33.385Z,2.80
2018-03-14T06:55:37.846Z,2.90
2018-03-14T06:56:43.046Z,2.30
2018-03-14T06:57:47.473Z,2.40
2018-03-14T06:59:03.848Z,2.75
2018-03-14T07:00:19.785Z,2.72
2018-03-14T07:01:38.126Z,2.55
2018-03-14T07:02:47.893Z,2.78
2018-03-14T07:04:03.514Z,3.08
2018-03-14T07:05:19.380Z,2.97
2018-03-14T07:06:24.564Z,4.35
2018-03-14T07:07:29.030Z,3.10
2018-03-14T07:08:33.470Z,3.08
2018-03-14T07:09:38.021Z,2.65
2018-03-14T07:10:42.450Z,2.20
2018-03-14T07:11:47.655Z,3.00
2018-03-14T07:12:52.117Z,3.30
2018-03-14T07:13:56.542Z,2.75
2018-03-14T07:15:00.981Z,3.30
2018-03-14T07:16:05.414Z,3.15
2018-03-14T07:17:10.620Z,3.00
2018-03-14T07:18:15.093Z,2.78
2018-03-14T07:19:19.202Z,3.03
2018-03-14T07:20:23.641Z,3.37
2018-03-14T07:21:28.079Z,2.28
2018-03-14T07:22:33.526Z,3.25
2018-03-14T07:23:38.759Z,3.50
2018-03-14T07:24:43.970Z,2.95
2018-03-14T07:25:49.171Z,2.35
2018-03-14T07:26:53.609Z,2.30
2018-03-14T07:27:58.810Z,2.80
2018-03-14T07:29:03.284Z,2.67
2018-03-14T07:31:19.721Z,3.50
2018-03-14T07:32:24.161Z,2.65
2018-03-14T07:33:29.357Z,2.80
2018-03-14T07:34:33.822Z,2.70
2018-03-14T07:35:37.922Z,2.22
2018-03-14T07:36:43.113Z,2.78
2018-03-14T07:37:47.575Z,5.90
2018-03-14T07:38:52.002Z,2.90
2018-03-14T07:39:56.460Z,2.75
2018-03-14T07:41:01.674Z,2.53
2018-03-14T07:42:06.167Z,1.98
2018-03-14T07:43:10.593Z,3.00
2018-03-14T07:44:15.038Z,2.72
2018-03-14T07:45:20.281Z,2.90
2018-03-14T07:46:24.713Z,2.47
2018-03-14T07:47:29.181Z,2.92
2018-03-14T07:48:34.468Z,3.25
2018-03-14T07:49:38.886Z,3.25
2018-03-14T07:50:43.343Z,4.07
2018-03-14T07:51:47.778Z,4.05
2018-03-14T07:52:52.217Z,6.05
2018-03-14T07:53:56.666Z,4.90
2018-03-14T07:55:01.889Z,5.20
2018-03-14T07:56:07.122Z,4.78
2018-03-14T07:57:12.331Z,4.65
2018-03-14T07:58:16.759Z,4.50
2018-03-14T07:59:21.964Z,4.00
2018-03-14T08:00:26.400Z,5.90
2018-03-14T08:01:31.624Z,5.87
2018-03-14T08:02:36.915Z,4.10
2018-03-14T08:03:41.342Z,4.12
2018-03-14T08:04:45.786Z,5.10
2018-03-14T08:05:50.998Z,7.57
2018-03-14T08:06:56.223Z,4.47
2018-03-14T08:08:00.659Z,4.90
2018-03-14T08:09:04.429Z,4.72
2018-03-14T08:10:08.861Z,4.43
2018-03-14T08:11:13.321Z,3.53
2018-03-14T08:12:17.790Z,2.97
2018-03-14T08:13:23.006Z,3.70
2018-03-14T08:14:27.642Z,3.58
2018-03-14T08:15:32.085Z,3.62
2018-03-14T08:16:36.551Z,4.05
2018-03-14T08:17:41.810Z,3.80
2018-03-14T08:18:46.339Z,4.20
2018-03-14T08:19:50.766Z,3.67
2018-03-14T08:20:55.199Z,3.78
2018-03-14T08:22:00.426Z,3.92
2018-03-14T08:23:05.665Z,3.42
2018-03-14T08:24:10.875Z,4.07
2018-03-14T08:25:15.318Z,3.97
2018-03-14T08:26:19.753Z,4.15
2018-03-14T08:27:24.281Z,4.37
2018-03-14T08:28:28.742Z,3.65
2018-03-14T08:29:33.954Z,3.53
2018-03-14T08:30:38.383Z,4.40
2018-03-14T08:31:42.822Z,3.42
2018-03-14T08:32:47.249Z,3.20
2018-03-14T08:33:51.707Z,4.60
2018-03-14T08:34:56.907Z,3.20
2018-03-14T08:36:01.344Z,2.35
2018-03-14T08:37:06.546Z,2.80
2018-03-14T08:38:11.555Z,3.45
2018-03-14T08:39:16.014Z,3.97
2018-03-14T08:40:21.211Z,3.70
2018-03-14T08:41:27.150Z,3.97
2018-03-14T08:42:31.585Z,3.22
2018-03-14T08:43:36.015Z,3.50
2018-03-14T08:44:40.475Z,2.97
2018-03-14T08:45:44.909Z,2.47
2018-03-14T08:46:49.351Z,3.28
2018-03-14T08:47:53.781Z,3.85
2018-03-14T08:48:58.204Z,3.62
2018-03-14T08:50:02.667Z,3.60
2018-03-14T08:51:07.861Z,3.70
2018-03-14T08:52:12.301Z,3.20
2018-03-14T08:53:17.504Z,3.92
2018-03-14T08:54:21.949Z,3.67
2018-03-14T08:55:27.167Z,3.55
2018-03-14T08:56:32.387Z,3.60
2018-03-14T08:57:36.818Z,3.30
2018-03-14T08:58:42.009Z,3.62
2018-03-14T08:59:47.217Z,3.45
2018-03-14T09:00:51.724Z,3.58
2018-03-14T09:01:56.165Z,3.50
2018-03-14T09:03:00.594Z,3.40
2018-03-14T09:04:05.890Z,3.58
2018-03-14T09:05:10.319Z,3.78
2018-03-14T09:06:14.778Z,3.58
2018-03-14T09:07:19.214Z,4.00
2018-03-14T09:08:23.660Z,3.40
2018-03-14T09:09:28.097Z,3.70
2018-03-14T09:10:32.536Z,3.80
2018-03-14T09:11:36.994Z,4.35
2018-03-14T09:12:41.434Z,4.50
2018-03-14T09:13:45.882Z,3.95
2018-03-14T09:14:50.319Z,4.20
2018-03-14T09:15:54.767Z,4.18
2018-03-14T09:16:59.238Z,3.95
2018-03-14T09:18:03.732Z,4.50
2018-03-14T09:19:08.162Z,5.43
2018-03-14T09:20:12.598Z,4.50
2018-03-14T09:21:17.833Z,4.05
2018-03-14T09:22:22.297Z,4.80
2018-03-14T09:23:26.745Z,4.03
2018-03-14T09:24:31.957Z,3.30
2018-03-14T09:25:36.398Z,3.95
2018-03-14T09:26:40.511Z,4.30
2018-03-14T09:27:44.979Z,4.25
2018-03-14T09:28:49.422Z,5.03
2018-03-14T09:29:53.861Z,4.78
2018-03-14T09:30:58.294Z,4.65
2018-03-14T09:32:02.737Z,5.60
2018-03-14T09:33:07.978Z,5.00
2018-03-14T09:34:13.193Z,5.37
2018-03-14T09:35:18.429Z,5.60
2018-03-14T09:36:22.946Z,6.82
2018-03-14T09:37:28.175Z,6.32
2018-03-14T09:38:32.617Z,5.57
2018-03-14T09:39:37.080Z,6.10
2018-03-14T09:40:41.501Z,6.87
2018-03-14T09:41:46.695Z,6.43
2018-03-14T09:42:51.126Z,5.55
2018-03-14T09:43:55.588Z,5.47
2018-03-14T09:45:00.026Z,5.35
2018-03-14T09:46:04.481Z,5.80
2018-03-14T09:47:09.919Z,5.70
2018-03-14T09:48:14.514Z,6.47
2018-03-14T09:49:18.990Z,5.75
2018-03-14T09:50:23.494Z,5.53
2018-03-14T09:51:27.958Z,5.53
2018-03-14T09:52:33.358Z,6.75
2018-03-14T09:53:37.836Z,10.20
2018-03-14T09:54:42.333Z,6.70
2018-03-14T09:55:46.786Z,7.20
2018-03-14T09:56:51.230Z,6.43
2018-03-14T09:57:56.474Z,5.60
2018-03-14T09:59:00.908Z,6.00
2018-03-14T10:00:05.390Z,5.50
2018-03-14T10:01:10.690Z,6.25
2018-03-14T10:02:15.187Z,6.15
2018-03-14T10:03:19.618Z,6.32
2018-03-14T10:04:24.847Z,6.00
2018-03-14T10:05:30.833Z,7.75
2018-03-14T10:06:36.043Z,6.45
2018-03-14T10:07:41.255Z,6.40
2018-03-14T10:08:46.465Z,6.25
2018-03-14T10:09:50.983Z,5.72
2018-03-14T10:10:55.438Z,6.15
2018-03-14T10:11:59.873Z,5.90
2018-03-14T10:13:04.313Z,6.15
2018-03-14T10:14:10.275Z,5.97
2018-03-14T10:15:14.714Z,7.05
2018-03-14T10:16:19.993Z,5.80
2018-03-14T10:17:24.639Z,6.35
2018-03-14T10:18:29.066Z,6.55
2018-03-14T10:19:34.280Z,6.45
2018-03-14T10:20:39.503Z,5.35
2018-03-14T10:21:43.984Z,6.85
2018-03-14T10:22:48.468Z,6.28
2018-03-14T10:23:52.890Z,6.70
2018-03-14T10:24:57.334Z,7.05
2018-03-14T10:26:01.784Z,7.32
2018-03-14T10:27:07.013Z,6.70
2018-03-14T10:28:11.575Z,7.00
2018-03-14T10:29:16.002Z,5.75
2018-03-14T10:30:20.443Z,6.57
2018-03-14T10:31:25.656Z,7.45
2018-03-14T10:32:30.118Z,6.47
2018-03-14T10:33:34.590Z,6.10
2018-03-14T10:34:39.796Z,7.25
2018-03-14T10:35:44.235Z,5.97
2018-03-14T10:36:49.820Z,6.87
2018-03-14T10:37:54.498Z,6.90
2018-03-14T10:38:58.938Z,6.00
2018-03-14T10:40:03.377Z,8.02
2018-03-14T10:41:07.835Z,6.00
2018-03-14T10:42:12.465Z,5.95
2018-03-14T10:43:16.936Z,7.32
2018-03-14T10:44:22.142Z,7.97
2018-03-14T10:45:26.588Z,6.30
2018-03-14T10:46:31.031Z,5.35
2018-03-14T10:47:35.504Z,4.90
2018-03-14T10:48:40.751Z,5.00
2018-03-14T10:49:45.302Z,4.70
2018-03-14T10:50:49.729Z,4.05
2018-03-14T10:51:54.778Z,4.40
2018-03-14T10:52:59.978Z,4.85
2018-03-14T10:54:04.109Z,4.93
2018-03-14T10:55:09.141Z,4.60
2018-03-14T10:56:14.347Z,4.90
2018-03-14T10:57:19.566Z,4.97
2018-03-14T10:58:24.078Z,5.15
2018-03-14T10:59:30.062Z,4.30
2018-03-14T11:00:40.110Z,4.78
2018-03-14T11:01:47.522Z,4.10
2018-03-14T11:02:52.774Z,3.83
2018-03-14T11:03:58.765Z,3.72
2018-03-14T11:05:03.227Z,5.07
2018-03-14T11:06:07.671Z,4.47
2018-03-14T11:07:12.891Z,4.28
2018-03-14T11:08:18.099Z,5.28
2018-03-14T11:09:22.548Z,4.20
2018-03-14T11:10:27.775Z,4.95
2018-03-14T11:11:32.230Z,5.25
2018-03-14T11:12:36.677Z,4.55
2018-03-14T11:13:41.898Z,5.35
2018-03-14T11:14:46.338Z,4.60
2018-03-14T11:15:50.846Z,4.72
2018-03-14T11:16:56.034Z,5.90
2018-03-14T11:18:00.457Z,6.37
2018-03-14T11:19:04.321Z,6.12
2018-03-14T11:20:08.866Z,6.85
2018-03-14T11:21:13.338Z,6.45
2018-03-14T11:22:17.778Z,6.87
2018-03-14T11:23:22.381Z,7.60
2018-03-14T11:24:26.812Z,5.90
2018-03-14T11:25:32.853Z,6.80
2018-03-14T11:26:37.557Z,6.37
2018-03-14T11:27:42.022Z,5.25
2018-03-14T11:28:47.233Z,6.37
2018-03-14T11:29:52.438Z,6.60
2018-03-14T11:30:56.885Z,6.25
2018-03-14T11:32:02.131Z,7.85
2018-03-14T11:33:06.561Z,6.95
2018-03-14T11:34:11.070Z,6.07
2018-03-14T11:35:15.518Z,5.40
2018-03-14T11:36:19.957Z,6.20
2018-03-14T11:37:25.182Z,6.95
2018-03-14T11:38:30.390Z,5.95
2018-03-14T11:39:34.839Z,6.70
2018-03-14T11:40:39.288Z,6.70
2018-03-14T11:41:43.725Z,6.75
2018-03-14T11:42:48.938Z,6.15
2018-03-14T11:43:53.391Z,6.32
2018-03-14T11:44:57.830Z,7.97
2018-03-14T11:46:03.037Z,6.12
2018-03-14T11:47:07.494Z,14.38
2018-03-14T11:48:11.950Z,7.95
2018-03-14T11:49:17.163Z,5.95
2018-03-14T11:50:22.398Z,5.82
2018-03-14T11:51:27.622Z,5.20
2018-03-14T11:52:32.822Z,5.85
2018-03-14T11:53:37.290Z,6.47
2018-03-14T11:54:41.732Z,6.28
2018-03-14T11:55:46.170Z,6.15
2018-03-14T11:56:50.602Z,7.15
2018-03-14T11:57:55.832Z,7.03
2018-03-14T11:59:01.059Z,6.03
2018-03-14T12:00:06.266Z,6.60
2018-03-14T12:01:11.546Z,5.95
2018-03-14T12:02:15.983Z,7.55
2018-03-14T12:03:20.432Z,6.15
2018-03-14T12:04:25.672Z,5.68
2018-03-14T12:05:30.885Z,6.90
2018-03-14T12:06:35.320Z,6.05
2018-03-14T12:07:40.519Z,6.25
2018-03-14T12:08:44.960Z,5.37
2018-03-14T12:09:49.424Z,5.30
2018-03-14T12:10:53.864Z,4.50
2018-03-14T12:11:59.071Z,4.60
2018-03-14T12:13:03.532Z,4.30
2018-03-14T12:14:07.982Z,4.15
2018-03-14T12:15:12.110Z,3.80
2018-03-14T12:16:17.335Z,3.95
2018-03-14T12:17:21.779Z,4.05
2018-03-14T12:18:26.217Z,4.57
2018-03-14T12:19:30.665Z,3.72
2018-03-14T12:20:35.141Z,3.95
2018-03-14T12:21:39.598Z,4.22
2018-03-14T12:22:44.811Z,4.30
2018-03-14T12:23:50.016Z,3.60
2018-03-14T12:24:54.467Z,4.15
2018-03-14T12:25:59.710Z,4.28
2018-03-14T12:27:04.155Z,3.92
2018-03-14T12:28:08.602Z,3.87
2018-03-14T12:29:13.055Z,3.33
2018-03-14T12:30:17.504Z,3.70
2018-03-14T12:31:21.977Z,4.15
2018-03-14T12:32:26.424Z,4.35
2018-03-14T12:33:30.922Z,3.80
2018-03-14T12:34:36.289Z,3.80
2018-03-14T12:35:42.243Z,3.97
2018-03-14T12:36:46.545Z,3.53
2018-03-14T12:37:50.987Z,4.60
2018-03-14T12:38:56.102Z,4.10
2018-03-14T12:40:01.372Z,4.05
2018-03-14T12:41:06.826Z,3.45
2018-03-14T12:42:10.960Z,3.80
2018-03-14T12:43:15.405Z,4.00
2018-03-14T12:44:19.848Z,3.83
2018-03-14T12:45:25.184Z,3.55
2018-03-14T12:46:29.644Z,3.40
2018-03-14T12:47:34.134Z,3.80
2018-03-14T12:48:39.034Z,3.00
2018-03-14T12:49:43.471Z,3.58
2018-03-14T12:50:48.670Z,2.75
2018-03-14T12:51:53.125Z,3.20
2018-03-14T12:52:57.669Z,3.35
2018-03-14T12:54:02.587Z,3.60
2018-03-14T12:55:07.122Z,2.95
2018-03-14T12:56:11.564Z,3.10
2018-03-14T12:57:17.385Z,3.58
2018-03-14T12:58:21.858Z,3.28
2018-03-14T12:59:26.397Z,3.00
2018-03-14T13:00:30.827Z,3.30
2018-03-14T13:01:35.266Z,3.45
2018-03-14T13:02:40.481Z,2.15
2018-03-14T13:03:44.623Z,3.00
2018-03-14T13:04:49.070Z,2.47
2018-03-14T13:05:53.511Z,2.70
2018-03-14T13:06:58.795Z,3.05
2018-03-14T13:08:03.225Z,2.30
2018-03-14T13:09:07.983Z,2.97
2018-03-14T13:10:12.418Z,2.53
2018-03-14T13:11:16.877Z,2.97
2018-03-14T13:12:22.818Z,3.33
2018-03-14T13:13:28.039Z,2.70
2018-03-14T13:14:32.509Z,3.08
2018-03-14T13:15:36.983Z,3.60
2018-03-14T13:16:42.418Z,3.37
2018-03-14T13:17:47.016Z,2.60
2018-03-14T13:18:51.490Z,3.33
2018-03-14T13:19:55.969Z,3.17
2018-03-14T13:21:01.178Z,3.05
2018-03-14T13:22:05.697Z,4.30
2018-03-14T13:23:10.899Z,3.10
2018-03-14T13:24:15.380Z,3.20
2018-03-14T13:25:19.874Z,3.42
2018-03-14T13:26:25.041Z,3.20
2018-03-14T13:27:29.485Z,3.12
2018-03-14T13:28:34.698Z,2.95
2018-03-14T13:29:39.142Z,2.67
2018-03-14T13:30:44.386Z,3.10
2018-03-14T13:31:48.830Z,3.12
2018-03-14T13:32:53.319Z,3.00
2018-03-14T13:33:58.687Z,3.60
2018-03-14T13:35:03.120Z,3.97
2018-03-14T13:36:08.351Z,3.97
2018-03-14T13:37:13.557Z,3.33
2018-03-14T13:38:17.993Z,3.87
2018-03-14T13:39:23.196Z,3.62
2018-03-14T13:40:27.692Z,3.33
2018-03-14T13:41:32.150Z,4.18
2018-03-14T13:42:37.362Z,4.00
2018-03-14T13:43:41.805Z,3.65
2018-03-14T13:44:46.246Z,4.10
2018-03-14T13:45:50.694Z,3.90
2018-03-14T13:46:55.177Z,3.80
2018-03-14T13:47:59.634Z,4.22
2018-03-14T13:49:04.536Z,4.25
2018-03-14T13:50:08.975Z,3.90
2018-03-14T13:51:13.410Z,3.75
2018-03-14T13:52:17.885Z,4.43
2018-03-14T13:53:23.115Z,3.80
2018-03-14T13:54:27.900Z,3.55
2018-03-14T13:55:33.215Z,3.87
2018-03-14T13:56:37.672Z,3.72
2018-03-14T13:57:43.079Z,3.50
2018-03-14T13:58:48.303Z,3.25
2018-03-14T13:59:52.809Z,3.90
2018-03-14T14:00:57.530Z,3.97
2018-03-14T14:02:02.034Z,4.22
2018-03-14T14:03:06.499Z,3.55
2018-03-14T14:04:10.978Z,4.57
2018-03-14T14:05:15.573Z,4.97
2018-03-14T14:06:19.998Z,4.60
2018-03-14T14:07:24.447Z,4.82
2018-03-14T14:08:29.006Z,5.87
2018-03-14T14:09:33.486Z,4.20
2018-03-14T14:10:38.713Z,4.80
2018-03-14T14:11:43.170Z,5.50
2018-03-14T14:12:47.614Z,5.50
2018-03-14T14:13:53.311Z,4.87
2018-03-14T14:14:57.864Z,5.45
2018-03-14T14:16:03.082Z,6.55
2018-03-14T14:17:07.522Z,4.75
2018-03-14T14:18:11.993Z,5.68
2018-03-14T14:19:17.444Z,5.15
2018-03-14T14:20:22.810Z,5.87
2018-03-14T14:21:27.346Z,5.82
2018-03-14T14:22:31.778Z,6.65
2018-03-14T14:23:36.212Z,5.78
2018-03-14T14:24:40.693Z,6.07